Terminal Aerodrome Forecast
Issued by NWS

Home | Current Version | Previous Version | Text Only | Print | Product List | Glossary On
Versions: 1 2 3 4 5 6 7 8 9 10 11 12 13 14 15 16 17 18 19 20 21 22 23 24 25
000
FTUS43 KAPX 281700
TAFAPN
TAF
KAPN 281740Z 2818/2918 33012KT P6SM OVC040
     FM282200 30009KT P6SM SCT045
     FM290800 29005KT P6SM BKN050
     FM291100 27005KT 6SM -SHRA SCT015 OVC040=

USA.gov is the U.S. government's official web portal to all federal, state and local government web resources and services.